North Platte, NE

11:00 AM CDT on July 06, 2015 (GMT -0500)
K0KDC North Platte | | Change Station
CLOSE
Current Station
Personal Weather Station
Location: North Platte, NE
Elevation: 2808 ft
Nearby Weather Stations

Elev 2808 ft 41.14 °N, 100.77 °W | Updated 45 seconds ago

Overcast
Overcast
65.9 °F
Feels Like 65.9 °F
N
11.0
Wind Variable Wind from North
Gusts 18.0 mph

Today
High -- | Low -- °F
--% Chance of Precip.
Yesterday
High -- | Low -- °F
Precip. -- in
6:16 AM 9:18 PM
Waning Gibbous, 74% visible
Pressure 30.03 in
Visibility 10.0 miles
Clouds Overcast 1900 ft
Dew Point 60 °F
Humidity 80%
Rainfall 0.00 in
Snow Depth Not available.
UV 2 out of 12
Pollen 1.90 out of 12
Air Quality Not available.
Flu Activity Not available.
METAR KLBF 061553Z AUTO 01014G20KT 10SM OVC019 19/14 A3009 RMK AO2 SLP167 T01940144

More Conditions Fewer Conditions

Pressure 30.03 in
Visibility 10.0 miles
Clouds Overcast 1900 ft
Dew Point 60 °F
Humidity 80%
Rainfall 0.00 in
Snow Depth Not available.
UV 2 out of 12
Pollen 1.90 out of 12
Air Quality Not available.
Flu Activity Not available.
METAR KLBF 061553Z AUTO 01014G20KT 10SM OVC019 19/14 A3009 RMK AO2 SLP167 T01940144

More Conditions Fewer Conditions

Nowcast | as of 7:30 am CDT on July 6, 2015

Rain showers will continue to decrease in coverage through noon CDT across the area. The greatest coverage will be east of Highway 83 where hourly rainfall amounts of a tenth of an inch are possible as showers move east.

×

10-Day Weather Forecast

×

Almanac

Astronomy

Jul. 06, 2015 Rise Set
Actual Time
Civil Twilight
Nautical Twilight
Astronomical Twilight
Moon
Length of Visible Light
Length of Day
Tomorrow will be .
, % of the Moon is Illuminated

Today's Extremes

State Highs State Lows

Community

WunderPhotos

Upload Photos

1,835,586 photos uploaded!

WunderBlogs® & News

Nearby

Air Quality

  Air Quality AQ Index Pollutant
Not available.

Snow Depth

Station Depth Elevation

Earthquake Activity

City Distance Mag. Time & Date
Minimum magnitude displayed is 2.5.

Coastal Water Temperatures

Place Temperature

Stations

Nearby Weather Stations

Station Location Temp. Windchill Dew Point Humidity Wind Precip. Elev Updated Type